Hammonton, New Jersey
Current Conditions -  °F | °C
As of 3:54 PM on Sunday 23 Nov 2014 (Local Time) from KACY Reporting Station
Clear Clear  
Wind Chill: 53°   Ceiling: Unl
Heat Index: 53°   Visibility: 10mi
Dew Point: 43°   Wind: 7mph
Humidity: 69%   Direction: 150°SSE
Pressure: 30.15"   Gusts: NA
Location:  39.64°N, 74.8°W
Report Text: KACY 232054Z 15006KT 10SM CLR 12/06 A3015 RMK AO2 SLP211 T01170061 55010
Loading
Personal Weather Stations






























Interactive Weather Map New forecast layout! Learn more

10-Day Weather Forecast

Advertisements
Track Severe Weather on mobile